sensor_id;sensor_type;location;lat;lon;timestamp;temperature;humidity
25753;DHT22;13600;50.816;4.416;2022-12-11T00:02:00;3.80;99.90
25753;DHT22;13600;50.816;4.416;2022-12-11T00:04:26;3.80;99.90
25753;DHT22;13600;50.816;4.416;2022-12-11T00:06:52;3.80;99.90
25753;DHT22;13600;50.816;4.416;2022-12-11T00:09:19;3.90;99.90
25753;DHT22;13600;50.816;4.416;2022-12-11T00:11:46;3.90;99.90
25753;DHT22;13600;50.816;4.416;2022-12-11T00:14:12;3.80;99.90
25753;DHT22;13600;50.816;4.416;2022-12-11T00:16:39;4.00;99.90
25753;DHT22;13600;50.816;4.416;2022-12-11T00:19:05;4.10;99.90
25753;DHT22;13600;50.816;4.416;2022-12-11T00:21:31;4.00;99.90
25753;DHT22;13600;50.816;4.416;2022-12-11T00:23:57;4.00;99.90
25753;DHT22;13600;50.816;4.416;2022-12-11T00:26:23;4.00;99.90
25753;DHT22;13600;50.816;4.416;2022-12-11T00:28:54;3.90;99.90
25753;DHT22;13600;50.816;4.416;2022-12-11T00:31:21;3.90;99.90
25753;DHT22;13600;50.816;4.416;2022-12-11T00:33:48;3.90;99.90
25753;DHT22;13600;50.816;4.416;2022-12-11T00:36:17;3.90;99.90
25753;DHT22;13600;50.816;4.416;2022-12-11T00:38:42;4.00;99.90
25753;DHT22;13600;50.816;4.416;2022-12-11T00:41:09;3.90;99.90
25753;DHT22;13600;50.816;4.416;2022-12-11T00:43:35;3.90;99.90
25753;DHT22;13600;50.816;4.416;2022-12-11T00:46:01;4.00;99.90
25753;DHT22;13600;50.816;4.416;2022-12-11T00:48:27;4.10;99.90
25753;DHT22;13600;50.816;4.416;2022-12-11T00:50:53;4.10;99.90
25753;DHT22;13600;50.816;4.416;2022-12-11T00:53:18;4.10;99.90
25753;DHT22;13600;50.816;4.416;2022-12-11T00:55:44;4.10;99.90
25753;DHT22;13600;50.816;4.416;2022-12-11T00:58:10;4.10;99.90
25753;DHT22;13600;50.816;4.416;2022-12-11T01:00:37;4.00;99.90
25753;DHT22;13600;50.816;4.416;2022-12-11T01:03:03;3.80;99.90
25753;DHT22;13600;50.816;4.416;2022-12-11T01:05:29;4.10;99.90
25753;DHT22;13600;50.816;4.416;2022-12-11T01:07:55;4.00;99.90
25753;DHT22;13600;50.816;4.416;2022-12-11T01:10:21;4.10;99.90
25753;DHT22;13600;50.816;4.416;2022-12-11T01:12:54;4.10;99.90
25753;DHT22;13600;50.816;4.416;2022-12-11T01:15:23;4.00;99.90
25753;DHT22;13600;50.816;4.416;2022-12-11T01:17:49;3.90;99.90
25753;DHT22;13600;50.816;4.416;2022-12-11T01:20:18;3.90;99.90
25753;DHT22;13600;50.816;4.416;2022-12-11T01:22:44;3.90;99.90
25753;DHT22;13600;50.816;4.416;2022-12-11T01:25:09;3.90;99.90
25753;DHT22;13600;50.816;4.416;2022-12-11T01:27:36;4.00;99.90
25753;DHT22;13600;50.816;4.416;2022-12-11T01:30:06;4.00;99.90
25753;DHT22;13600;50.816;4.416;2022-12-11T01:32:34;4.00;99.90
25753;DHT22;13600;50.816;4.416;2022-12-11T01:35:06;4.20;99.90
25753;DHT22;13600;50.816;4.416;2022-12-11T01:37:32;4.20;99.90
25753;DHT22;13600;50.816;4.416;2022-12-11T01:40:00;4.40;99.90
25753;DHT22;13600;50.816;4.416;2022-12-11T01:42:26;4.30;99.90
25753;DHT22;13600;50.816;4.416;2022-12-11T01:45:26;4.20;99.90
25753;DHT22;13600;50.816;4.416;2022-12-11T01:48:03;4.20;99.90
25753;DHT22;13600;50.816;4.416;2022-12-11T01:50:32;4.30;99.90
25753;DHT22;13600;50.816;4.416;2022-12-11T01:52:59;4.30;99.90
25753;DHT22;13600;50.816;4.416;2022-12-11T01:55:25;4.20;99.90
25753;DHT22;13600;50.816;4.416;2022-12-11T01:57:51;4.30;99.90
25753;DHT22;13600;50.816;4.416;2022-12-11T02:00:19;4.20;99.90
25753;DHT22;13600;50.816;4.416;2022-12-11T02:02:45;4.30;99.90
25753;DHT22;13600;50.816;4.416;2022-12-11T02:05:11;4.50;99.90
25753;DHT22;13600;50.816;4.416;2022-12-11T02:07:48;4.50;99.90
25753;DHT22;13600;50.816;4.416;2022-12-11T02:10:15;4.40;99.90
25753;DHT22;13600;50.816;4.416;2022-12-11T02:12:59;4.30;99.90
25753;DHT22;13600;50.816;4.416;2022-12-11T02:15:43;4.20;99.90
25753;DHT22;13600;50.816;4.416;2022-12-11T02:18:48;4.30;99.90
25753;DHT22;13600;50.816;4.416;2022-12-11T02:21:26;4.30;99.90
25753;DHT22;13600;50.816;4.416;2022-12-11T02:26:49;4.40;99.90
25753;DHT22;13600;50.816;4.416;2022-12-11T02:29:44;4.30;99.90
25753;DHT22;13600;50.816;4.416;2022-12-11T02:32:23;4.20;99.90
25753;DHT22;13600;50.816;4.416;2022-12-11T02:37:31;4.30;99.90
25753;DHT22;13600;50.816;4.416;2022-12-11T02:39:58;4.30;99.90
25753;DHT22;13600;50.816;4.416;2022-12-11T02:42:27;4.30;99.90
25753;DHT22;13600;50.816;4.416;2022-12-11T02:44:55;4.30;99.90
25753;DHT22;13600;50.816;4.416;2022-12-11T02:47:26;4.30;99.90
25753;DHT22;13600;50.816;4.416;2022-12-11T02:49:54;4.30;99.90
25753;DHT22;13600;50.816;4.416;2022-12-11T02:52:22;4.20;99.90
25753;DHT22;13600;50.816;4.416;2022-12-11T02:54:51;4.20;99.90
25753;DHT22;13600;50.816;4.416;2022-12-11T02:57:24;4.10;99.90
25753;DHT22;13600;50.816;4.416;2022-12-11T02:59:52;4.10;99.90
25753;DHT22;13600;50.816;4.416;2022-12-11T03:02:18;4.10;99.90
25753;DHT22;13600;50.816;4.416;2022-12-11T03:04:45;4.10;99.90
25753;DHT22;13600;50.816;4.416;2022-12-11T03:07:15;4.00;99.90
25753;DHT22;13600;50.816;4.416;2022-12-11T03:09:44;4.00;99.90
25753;DHT22;13600;50.816;4.416;2022-12-11T03:12:14;4.00;99.90
25753;DHT22;13600;50.816;4.416;2022-12-11T03:14:42;3.90;99.90
25753;DHT22;13600;50.816;4.416;2022-12-11T03:22:32;3.90;99.90
25753;DHT22;13600;50.816;4.416;2022-12-11T03:25:02;3.90;99.90
25753;DHT22;13600;50.816;4.416;2022-12-11T03:27:39;3.80;99.90
25753;DHT22;13600;50.816;4.416;2022-12-11T03:30:10;3.90;99.90
25753;DHT22;13600;50.816;4.416;2022-12-11T03:33:05;4.00;99.90
25753;DHT22;13600;50.816;4.416;2022-12-11T03:35:41;3.90;99.90
25753;DHT22;13600;50.816;4.416;2022-12-11T03:38:17;3.70;99.90
25753;DHT22;13600;50.816;4.416;2022-12-11T03:40:49;3.50;99.90
25753;DHT22;13600;50.816;4.416;2022-12-11T03:43:16;3.60;99.90
25753;DHT22;13600;50.816;4.416;2022-12-11T03:45:43;3.70;99.90
25753;DHT22;13600;50.816;4.416;2022-12-11T03:48:11;3.90;99.90
25753;DHT22;13600;50.816;4.416;2022-12-11T03:50:39;3.90;99.90
25753;DHT22;13600;50.816;4.416;2022-12-11T03:53:06;3.80;99.90
25753;DHT22;13600;50.816;4.416;2022-12-11T03:55:35;3.80;99.90
25753;DHT22;13600;50.816;4.416;2022-12-11T03:58:02;3.80;99.90
25753;DHT22;13600;50.816;4.416;2022-12-11T04:00:28;3.90;99.90
25753;DHT22;13600;50.816;4.416;2022-12-11T04:02:54;3.90;99.90
25753;DHT22;13600;50.816;4.416;2022-12-11T04:05:42;3.90;99.90
25753;DHT22;13600;50.816;4.416;2022-12-11T04:08:08;4.00;99.90
25753;DHT22;13600;50.816;4.416;2022-12-11T04:10:34;4.00;99.90
25753;DHT22;13600;50.816;4.416;2022-12-11T04:12:59;4.00;99.90
25753;DHT22;13600;50.816;4.416;2022-12-11T04:15:25;4.00;99.90
25753;DHT22;13600;50.816;4.416;2022-12-11T04:17:50;4.00;99.90
25753;DHT22;13600;50.816;4.416;2022-12-11T04:20:34;3.90;99.90
25753;DHT22;13600;50.816;4.416;2022-12-11T04:23:18;4.00;99.90
25753;DHT22;13600;50.816;4.416;2022-12-11T04:26:36;4.10;99.90
25753;DHT22;13600;50.816;4.416;2022-12-11T04:28:54;4.10;99.90
25753;DHT22;13600;50.816;4.416;2022-12-11T04:31:21;4.00;99.90
25753;DHT22;13600;50.816;4.416;2022-12-11T04:33:46;4.10;99.90
25753;DHT22;13600;50.816;4.416;2022-12-11T04:36:12;4.00;99.90
25753;DHT22;13600;50.816;4.416;2022-12-11T04:38:39;4.00;99.90
25753;DHT22;13600;50.816;4.416;2022-12-11T04:41:08;3.90;99.90
25753;DHT22;13600;50.816;4.416;2022-12-11T04:43:34;4.00;99.90
25753;DHT22;13600;50.816;4.416;2022-12-11T04:46:04;4.00;99.90
25753;DHT22;13600;50.816;4.416;2022-12-11T04:48:30;3.90;99.90
25753;DHT22;13600;50.816;4.416;2022-12-11T04:50:56;3.80;99.90
25753;DHT22;13600;50.816;4.416;2022-12-11T04:53:22;3.80;99.90
25753;DHT22;13600;50.816;4.416;2022-12-11T04:55:47;3.80;99.90
25753;DHT22;13600;50.816;4.416;2022-12-11T04:58:13;3.70;99.90
25753;DHT22;13600;50.816;4.416;2022-12-11T05:00:39;3.80;99.90
25753;DHT22;13600;50.816;4.416;2022-12-11T05:03:05;3.80;99.90
25753;DHT22;13600;50.816;4.416;2022-12-11T05:05:32;3.80;99.90
25753;DHT22;13600;50.816;4.416;2022-12-11T05:07:57;3.90;99.90
25753;DHT22;13600;50.816;4.416;2022-12-11T05:10:23;4.00;99.90
25753;DHT22;13600;50.816;4.416;2022-12-11T05:12:49;4.00;99.90
25753;DHT22;13600;50.816;4.416;2022-12-11T05:15:14;4.10;99.90
25753;DHT22;13600;50.816;4.416;2022-12-11T05:17:40;4.10;99.90
25753;DHT22;13600;50.816;4.416;2022-12-11T05:20:06;3.90;99.90
25753;DHT22;13600;50.816;4.416;2022-12-11T05:22:32;3.80;99.90
25753;DHT22;13600;50.816;4.416;2022-12-11T05:24:57;3.80;99.90
25753;DHT22;13600;50.816;4.416;2022-12-11T05:27:23;3.90;99.90
25753;DHT22;13600;50.816;4.416;2022-12-11T05:29:49;4.00;99.90
25753;DHT22;13600;50.816;4.416;2022-12-11T05:32:14;3.90;99.90
25753;DHT22;13600;50.816;4.416;2022-12-11T05:34:40;4.00;99.90
25753;DHT22;13600;50.816;4.416;2022-12-11T05:37:06;4.10;99.90
25753;DHT22;13600;50.816;4.416;2022-12-11T05:39:31;4.10;99.90
25753;DHT22;13600;50.816;4.416;2022-12-11T05:41:57;4.00;99.90
25753;DHT22;13600;50.816;4.416;2022-12-11T05:44:23;4.00;99.90
25753;DHT22;13600;50.816;4.416;2022-12-11T05:46:49;3.80;99.90
25753;DHT22;13600;50.816;4.416;2022-12-11T05:49:14;3.80;99.90
25753;DHT22;13600;50.816;4.416;2022-12-11T05:51:40;3.80;99.90
25753;DHT22;13600;50.816;4.416;2022-12-11T05:54:09;4.00;99.90
25753;DHT22;13600;50.816;4.416;2022-12-11T05:56:35;3.90;99.90
25753;DHT22;13600;50.816;4.416;2022-12-11T05:59:03;4.00;99.90
25753;DHT22;13600;50.816;4.416;2022-12-11T06:03:57;3.90;99.90
25753;DHT22;13600;50.816;4.416;2022-12-11T06:06:25;3.80;99.90
25753;DHT22;13600;50.816;4.416;2022-12-11T06:08:52;4.00;99.90
25753;DHT22;13600;50.816;4.416;2022-12-11T06:11:19;4.10;99.90
25753;DHT22;13600;50.816;4.416;2022-12-11T06:13:44;4.20;99.90
25753;DHT22;13600;50.816;4.416;2022-12-11T06:16:11;4.00;99.90
25753;DHT22;13600;50.816;4.416;2022-12-11T06:18:37;3.80;99.90
25753;DHT22;13600;50.816;4.416;2022-12-11T06:21:30;3.80;99.90
25753;DHT22;13600;50.816;4.416;2022-12-11T06:23:58;3.80;99.90
25753;DHT22;13600;50.816;4.416;2022-12-11T06:26:25;3.90;99.90
25753;DHT22;13600;50.816;4.416;2022-12-11T06:28:50;4.10;99.90
25753;DHT22;13600;50.816;4.416;2022-12-11T06:31:17;4.10;99.90
25753;DHT22;13600;50.816;4.416;2022-12-11T06:33:43;4.00;99.90
25753;DHT22;13600;50.816;4.416;2022-12-11T06:36:15;4.00;99.90
25753;DHT22;13600;50.816;4.416;2022-12-11T06:38:41;4.00;99.90
25753;DHT22;13600;50.816;4.416;2022-12-11T06:41:07;3.90;99.90
25753;DHT22;13600;50.816;4.416;2022-12-11T06:43:36;3.80;99.90
25753;DHT22;13600;50.816;4.416;2022-12-11T06:46:03;3.80;99.90
25753;DHT22;13600;50.816;4.416;2022-12-11T06:48:29;3.80;99.90
25753;DHT22;13600;50.816;4.416;2022-12-11T06:50:55;3.80;99.90
25753;DHT22;13600;50.816;4.416;2022-12-11T06:53:22;3.90;99.90
25753;DHT22;13600;50.816;4.416;2022-12-11T06:55:47;3.90;99.90
25753;DHT22;13600;50.816;4.416;2022-12-11T06:58:13;3.90;99.90
25753;DHT22;13600;50.816;4.416;2022-12-11T07:00:39;3.80;99.90
25753;DHT22;13600;50.816;4.416;2022-12-11T07:03:04;3.80;99.90
25753;DHT22;13600;50.816;4.416;2022-12-11T07:05:31;3.70;99.90
25753;DHT22;13600;50.816;4.416;2022-12-11T07:07:57;3.50;99.90
25753;DHT22;13600;50.816;4.416;2022-12-11T07:10:23;3.60;99.90
25753;DHT22;13600;50.816;4.416;2022-12-11T07:12:50;3.60;99.90
25753;DHT22;13600;50.816;4.416;2022-12-11T07:15:16;3.60;99.90
25753;DHT22;13600;50.816;4.416;2022-12-11T07:17:42;3.60;99.90
25753;DHT22;13600;50.816;4.416;2022-12-11T07:20:08;3.60;99.90
25753;DHT22;13600;50.816;4.416;2022-12-11T07:22:33;3.60;99.90
25753;DHT22;13600;50.816;4.416;2022-12-11T07:24:59;3.50;99.90
25753;DHT22;13600;50.816;4.416;2022-12-11T07:27:25;3.50;99.90
25753;DHT22;13600;50.816;4.416;2022-12-11T07:29:51;3.60;99.90
25753;DHT22;13600;50.816;4.416;2022-12-11T07:32:16;3.70;99.90
25753;DHT22;13600;50.816;4.416;2022-12-11T07:34:42;3.80;99.90
25753;DHT22;13600;50.816;4.416;2022-12-11T07:37:07;3.80;99.90
25753;DHT22;13600;50.816;4.416;2022-12-11T07:39:33;4.00;99.90
25753;DHT22;13600;50.816;4.416;2022-12-11T07:41:59;4.10;99.90
25753;DHT22;13600;50.816;4.416;2022-12-11T07:44:25;4.10;99.90
25753;DHT22;13600;50.816;4.416;2022-12-11T07:46:50;4.10;99.90
25753;DHT22;13600;50.816;4.416;2022-12-11T07:49:16;4.10;99.90
25753;DHT22;13600;50.816;4.416;2022-12-11T07:51:42;4.10;99.90
25753;DHT22;13600;50.816;4.416;2022-12-11T07:54:11;3.90;99.90
25753;DHT22;13600;50.816;4.416;2022-12-11T07:56:44;3.90;99.90
25753;DHT22;13600;50.816;4.416;2022-12-11T07:59:11;3.90;99.90
25753;DHT22;13600;50.816;4.416;2022-12-11T08:01:37;3.90;99.90
25753;DHT22;13600;50.816;4.416;2022-12-11T08:04:05;3.80;99.90
25753;DHT22;13600;50.816;4.416;2022-12-11T08:06:33;3.80;99.90
25753;DHT22;13600;50.816;4.416;2022-12-11T08:09:01;3.70;99.90
25753;DHT22;13600;50.816;4.416;2022-12-11T08:11:28;3.70;99.90
25753;DHT22;13600;50.816;4.416;2022-12-11T08:13:54;3.80;99.90
25753;DHT22;13600;50.816;4.416;2022-12-11T08:16:20;3.80;99.90
25753;DHT22;13600;50.816;4.416;2022-12-11T08:18:46;3.60;99.90
25753;DHT22;13600;50.816;4.416;2022-12-11T08:23:38;3.60;99.90
25753;DHT22;13600;50.816;4.416;2022-12-11T08:26:09;3.50;99.90
25753;DHT22;13600;50.816;4.416;2022-12-11T08:28:36;3.40;99.90
25753;DHT22;13600;50.816;4.416;2022-12-11T08:31:06;3.40;99.90
25753;DHT22;13600;50.816;4.416;2022-12-11T08:33:33;3.50;99.90
25753;DHT22;13600;50.816;4.416;2022-12-11T08:36:08;3.50;99.90
25753;DHT22;13600;50.816;4.416;2022-12-11T08:38:34;3.70;99.90
25753;DHT22;13600;50.816;4.416;2022-12-11T08:41:21;3.80;99.90
25753;DHT22;13600;50.816;4.416;2022-12-11T08:43:48;4.00;99.90
25753;DHT22;13600;50.816;4.416;2022-12-11T08:46:14;4.00;99.90
25753;DHT22;13600;50.816;4.416;2022-12-11T08:48:41;4.10;99.90
25753;DHT22;13600;50.816;4.416;2022-12-11T08:51:11;4.10;99.90
25753;DHT22;13600;50.816;4.416;2022-12-11T08:53:37;4.00;99.90
25753;DHT22;13600;50.816;4.416;2022-12-11T08:56:06;4.00;99.90
25753;DHT22;13600;50.816;4.416;2022-12-11T08:58:32;3.90;99.90
25753;DHT22;13600;50.816;4.416;2022-12-11T09:00:58;3.90;99.90
25753;DHT22;13600;50.816;4.416;2022-12-11T09:03:24;3.90;99.90
25753;DHT22;13600;50.816;4.416;2022-12-11T09:05:50;3.80;99.90
25753;DHT22;13600;50.816;4.416;2022-12-11T09:08:16;4.00;99.90
25753;DHT22;13600;50.816;4.416;2022-12-11T09:10:42;3.90;99.90
25753;DHT22;13600;50.816;4.416;2022-12-11T09:13:08;3.70;99.90
25753;DHT22;13600;50.816;4.416;2022-12-11T09:15:33;3.70;99.90
25753;DHT22;13600;50.816;4.416;2022-12-11T09:18:00;3.80;99.90
25753;DHT22;13600;50.816;4.416;2022-12-11T09:20:25;4.00;99.90
25753;DHT22;13600;50.816;4.416;2022-12-11T09:22:51;3.90;99.90
25753;DHT22;13600;50.816;4.416;2022-12-11T09:25:17;4.00;99.90
25753;DHT22;13600;50.816;4.416;2022-12-11T09:27:42;4.00;99.90
25753;DHT22;13600;50.816;4.416;2022-12-11T09:30:08;4.20;99.90
25753;DHT22;13600;50.816;4.416;2022-12-11T09:32:34;4.30;99.90
25753;DHT22;13600;50.816;4.416;2022-12-11T09:34:59;4.30;99.90
25753;DHT22;13600;50.816;4.416;2022-12-11T09:37:25;4.20;99.90
25753;DHT22;13600;50.816;4.416;2022-12-11T09:39:51;4.00;99.90
25753;DHT22;13600;50.816;4.416;2022-12-11T09:45:03;3.90;99.90
25753;DHT22;13600;50.816;4.416;2022-12-11T09:47:40;3.90;99.90
25753;DHT22;13600;50.816;4.416;2022-12-11T09:50:15;3.70;99.90
25753;DHT22;13600;50.816;4.416;2022-12-11T09:53:04;3.70;99.90
25753;DHT22;13600;50.816;4.416;2022-12-11T09:55:54;3.90;99.90
25753;DHT22;13600;50.816;4.416;2022-12-11T09:58:26;4.00;99.90
25753;DHT22;13600;50.816;4.416;2022-12-11T10:01:10;4.00;99.90
25753;DHT22;13600;50.816;4.416;2022-12-11T10:04:11;4.10;99.90
25753;DHT22;13600;50.816;4.416;2022-12-11T10:06:55;4.20;99.90
25753;DHT22;13600;50.816;4.416;2022-12-11T10:09:42;4.20;99.90
25753;DHT22;13600;50.816;4.416;2022-12-11T10:15:13;4.30;99.90
25753;DHT22;13600;50.816;4.416;2022-12-11T10:17:42;4.40;99.90
25753;DHT22;13600;50.816;4.416;2022-12-11T10:22:44;4.60;99.90
25753;DHT22;13600;50.816;4.416;2022-12-11T10:25:27;4.60;99.90
25753;DHT22;13600;50.816;4.416;2022-12-11T10:27:53;4.60;99.90
25753;DHT22;13600;50.816;4.416;2022-12-11T10:30:21;4.60;99.90
25753;DHT22;13600;50.816;4.416;2022-12-11T10:35:38;4.30;99.90
25753;DHT22;13600;50.816;4.416;2022-12-11T10:38:15;4.30;99.90
25753;DHT22;13600;50.816;4.416;2022-12-11T10:40:45;4.40;99.90
25753;DHT22;13600;50.816;4.416;2022-12-11T10:43:11;4.40;99.90
25753;DHT22;13600;50.816;4.416;2022-12-11T10:45:39;4.30;99.90
25753;DHT22;13600;50.816;4.416;2022-12-11T10:48:08;4.30;99.90
25753;DHT22;13600;50.816;4.416;2022-12-11T10:50:34;4.20;99.90
25753;DHT22;13600;50.816;4.416;2022-12-11T10:53:00;4.30;99.90
25753;DHT22;13600;50.816;4.416;2022-12-11T10:55:32;4.20;99.90
25753;DHT22;13600;50.816;4.416;2022-12-11T10:58:04;4.40;99.90
25753;DHT22;13600;50.816;4.416;2022-12-11T11:00:38;4.40;99.90
25753;DHT22;13600;50.816;4.416;2022-12-11T11:03:16;4.40;99.90
25753;DHT22;13600;50.816;4.416;2022-12-11T11:05:43;4.50;99.90
25753;DHT22;13600;50.816;4.416;2022-12-11T11:08:17;4.60;99.90
25753;DHT22;13600;50.816;4.416;2022-12-11T11:10:57;4.80;99.90
25753;DHT22;13600;50.816;4.416;2022-12-11T11:13:26;5.00;99.90
25753;DHT22;13600;50.816;4.416;2022-12-11T11:16:00;5.10;99.90
25753;DHT22;13600;50.816;4.416;2022-12-11T11:18:28;5.10;99.90
25753;DHT22;13600;50.816;4.416;2022-12-11T11:20:55;5.20;99.90
25753;DHT22;13600;50.816;4.416;2022-12-11T11:23:23;5.40;99.90
25753;DHT22;13600;50.816;4.416;2022-12-11T11:25:52;5.60;99.90
25753;DHT22;13600;50.816;4.416;2022-12-11T11:28:35;5.60;99.90
25753;DHT22;13600;50.816;4.416;2022-12-11T11:31:11;5.80;99.90
25753;DHT22;13600;50.816;4.416;2022-12-11T11:33:48;6.00;99.90
25753;DHT22;13600;50.816;4.416;2022-12-11T11:36:27;6.20;99.90
25753;DHT22;13600;50.816;4.416;2022-12-11T11:42:22;6.80;99.90
25753;DHT22;13600;50.816;4.416;2022-12-11T11:44:34;6.90;99.90
25753;DHT22;13600;50.816;4.416;2022-12-11T11:47:18;6.80;99.90
25753;DHT22;13600;50.816;4.416;2022-12-11T11:52:29;6.50;99.90
25753;DHT22;13600;50.816;4.416;2022-12-11T11:58:16;6.70;99.90
25753;DHT22;13600;50.816;4.416;2022-12-11T12:00:43;7.00;99.90
25753;DHT22;13600;50.816;4.416;2022-12-11T12:03:15;7.10;99.90
25753;DHT22;13600;50.816;4.416;2022-12-11T12:06:11;7.20;99.90
25753;DHT22;13600;50.816;4.416;2022-12-11T12:17:47;6.20;99.90
25753;DHT22;13600;50.816;4.416;2022-12-11T12:23:24;5.60;99.90
25753;DHT22;13600;50.816;4.416;2022-12-11T12:26:07;5.60;99.90
25753;DHT22;13600;50.816;4.416;2022-12-11T12:31:44;5.60;99.90
25753;DHT22;13600;50.816;4.416;2022-12-11T12:34:29;5.50;99.90
25753;DHT22;13600;50.816;4.416;2022-12-11T12:42:39;5.00;99.90
25753;DHT22;13600;50.816;4.416;2022-12-11T12:48:00;4.70;99.90
25753;DHT22;13600;50.816;4.416;2022-12-11T12:50:35;4.60;99.90
25753;DHT22;13600;50.816;4.416;2022-12-11T12:53:04;4.50;99.90
25753;DHT22;13600;50.816;4.416;2022-12-11T12:55:31;4.60;99.90
25753;DHT22;13600;50.816;4.416;2022-12-11T12:58:00;4.60;99.90
25753;DHT22;13600;50.816;4.416;2022-12-11T13:00:38;4.60;99.90
25753;DHT22;13600;50.816;4.416;2022-12-11T13:03:25;4.50;99.90
25753;DHT22;13600;50.816;4.416;2022-12-11T13:06:01;4.40;99.90
25753;DHT22;13600;50.816;4.416;2022-12-11T13:08:38;4.40;99.90
25753;DHT22;13600;50.816;4.416;2022-12-11T13:11:07;4.50;99.90
25753;DHT22;13600;50.816;4.416;2022-12-11T13:13:46;4.60;99.90
25753;DHT22;13600;50.816;4.416;2022-12-11T13:18:46;4.60;99.90
25753;DHT22;13600;50.816;4.416;2022-12-11T13:21:41;4.70;99.90
25753;DHT22;13600;50.816;4.416;2022-12-11T13:24:44;4.70;99.90
25753;DHT22;13600;50.816;4.416;2022-12-11T13:27:24;4.80;99.90
25753;DHT22;13600;50.816;4.416;2022-12-11T13:29:51;4.70;99.90
25753;DHT22;13600;50.816;4.416;2022-12-11T13:34:49;4.60;99.90
25753;DHT22;13600;50.816;4.416;2022-12-11T13:39:51;4.80;99.90
25753;DHT22;13600;50.816;4.416;2022-12-11T13:42:28;4.80;99.90
25753;DHT22;13600;50.816;4.416;2022-12-11T13:44:56;4.70;99.90
25753;DHT22;13600;50.816;4.416;2022-12-11T13:47:22;4.70;99.90
25753;DHT22;13600;50.816;4.416;2022-12-11T13:49:53;4.70;99.90
25753;DHT22;13600;50.816;4.416;2022-12-11T13:52:22;4.70;99.90
25753;DHT22;13600;50.816;4.416;2022-12-11T13:54:54;4.60;99.90
25753;DHT22;13600;50.816;4.416;2022-12-11T13:57:25;4.70;99.90
25753;DHT22;13600;50.816;4.416;2022-12-11T13:59:55;4.70;99.90
25753;DHT22;13600;50.816;4.416;2022-12-11T14:02:34;4.80;99.90
25753;DHT22;13600;50.816;4.416;2022-12-11T14:05:05;4.80;99.90
25753;DHT22;13600;50.816;4.416;2022-12-11T14:07:58;4.80;99.90
25753;DHT22;13600;50.816;4.416;2022-12-11T14:10:31;4.80;99.90
25753;DHT22;13600;50.816;4.416;2022-12-11T14:13:02;4.90;99.90
25753;DHT22;13600;50.816;4.416;2022-12-11T14:15:31;5.00;99.90
25753;DHT22;13600;50.816;4.416;2022-12-11T14:17:58;5.10;99.90
25753;DHT22;13600;50.816;4.416;2022-12-11T14:20:25;5.00;99.90
25753;DHT22;13600;50.816;4.416;2022-12-11T14:23:03;4.90;99.90
25753;DHT22;13600;50.816;4.416;2022-12-11T14:25:29;4.90;99.90
25753;DHT22;13600;50.816;4.416;2022-12-11T14:27:55;5.10;99.90
25753;DHT22;13600;50.816;4.416;2022-12-11T14:30:29;5.40;99.90
25753;DHT22;13600;50.816;4.416;2022-12-11T14:33:01;5.30;99.90
25753;DHT22;13600;50.816;4.416;2022-12-11T14:35:37;5.40;99.90
25753;DHT22;13600;50.816;4.416;2022-12-11T14:38:15;5.40;99.90
25753;DHT22;13600;50.816;4.416;2022-12-11T14:40:46;5.40;99.90
25753;DHT22;13600;50.816;4.416;2022-12-11T14:43:32;5.30;99.90
25753;DHT22;13600;50.816;4.416;2022-12-11T14:46:01;5.20;99.90
25753;DHT22;13600;50.816;4.416;2022-12-11T14:48:33;5.10;99.90
25753;DHT22;13600;50.816;4.416;2022-12-11T14:51:04;5.20;99.90
25753;DHT22;13600;50.816;4.416;2022-12-11T14:53:32;5.10;99.90
25753;DHT22;13600;50.816;4.416;2022-12-11T14:56:02;5.10;99.90
25753;DHT22;13600;50.816;4.416;2022-12-11T14:58:29;5.10;99.90
25753;DHT22;13600;50.816;4.416;2022-12-11T15:03:34;4.90;99.90
25753;DHT22;13600;50.816;4.416;2022-12-11T15:06:01;4.90;99.90
25753;DHT22;13600;50.816;4.416;2022-12-11T15:08:32;4.90;99.90
25753;DHT22;13600;50.816;4.416;2022-12-11T15:11:08;4.90;99.90
25753;DHT22;13600;50.816;4.416;2022-12-11T15:13:58;5.00;99.90
25753;DHT22;13600;50.816;4.416;2022-12-11T15:16:27;4.80;99.90
25753;DHT22;13600;50.816;4.416;2022-12-11T15:18:56;4.80;99.90
25753;DHT22;13600;50.816;4.416;2022-12-11T15:21:31;4.80;99.90
25753;DHT22;13600;50.816;4.416;2022-12-11T15:24:00;4.80;99.90
25753;DHT22;13600;50.816;4.416;2022-12-11T15:26:38;4.70;99.90
25753;DHT22;13600;50.816;4.416;2022-12-11T15:32:17;4.90;99.90
25753;DHT22;13600;50.816;4.416;2022-12-11T15:34:55;4.90;99.90
25753;DHT22;13600;50.816;4.416;2022-12-11T15:37:24;4.90;99.90
25753;DHT22;13600;50.816;4.416;2022-12-11T15:39:51;5.00;99.90
25753;DHT22;13600;50.816;4.416;2022-12-11T15:42:41;5.00;99.90
25753;DHT22;13600;50.816;4.416;2022-12-11T15:45:13;5.00;99.90
25753;DHT22;13600;50.816;4.416;2022-12-11T15:47:39;4.90;99.90
25753;DHT22;13600;50.816;4.416;2022-12-11T15:50:24;5.00;99.90
25753;DHT22;13600;50.816;4.416;2022-12-11T15:52:51;5.00;99.90
25753;DHT22;13600;50.816;4.416;2022-12-11T15:55:19;4.90;99.90
25753;DHT22;13600;50.816;4.416;2022-12-11T15:57:53;4.80;99.90
25753;DHT22;13600;50.816;4.416;2022-12-11T16:00:20;4.70;99.90
25753;DHT22;13600;50.816;4.416;2022-12-11T16:02:46;4.70;99.90
25753;DHT22;13600;50.816;4.416;2022-12-11T16:05:13;4.60;99.90
25753;DHT22;13600;50.816;4.416;2022-12-11T16:07:41;4.70;99.90
25753;DHT22;13600;50.816;4.416;2022-12-11T16:10:14;4.80;99.90
25753;DHT22;13600;50.816;4.416;2022-12-11T16:12:39;4.90;99.90
25753;DHT22;13600;50.816;4.416;2022-12-11T16:15:06;5.00;99.90
25753;DHT22;13600;50.816;4.416;2022-12-11T16:17:32;4.90;99.90
25753;DHT22;13600;50.816;4.416;2022-12-11T16:19:57;4.80;99.90
25753;DHT22;13600;50.816;4.416;2022-12-11T16:22:23;4.60;99.90
25753;DHT22;13600;50.816;4.416;2022-12-11T16:24:53;4.60;99.90
25753;DHT22;13600;50.816;4.416;2022-12-11T16:27:19;4.70;99.90
25753;DHT22;13600;50.816;4.416;2022-12-11T16:29:44;4.70;99.90
25753;DHT22;13600;50.816;4.416;2022-12-11T16:32:10;4.70;99.90
25753;DHT22;13600;50.816;4.416;2022-12-11T16:34:36;4.90;99.90
25753;DHT22;13600;50.816;4.416;2022-12-11T16:37:06;4.90;99.90
25753;DHT22;13600;50.816;4.416;2022-12-11T16:39:32;4.90;99.90
25753;DHT22;13600;50.816;4.416;2022-12-11T16:41:58;4.90;99.90
25753;DHT22;13600;50.816;4.416;2022-12-11T16:44:25;4.90;99.90
25753;DHT22;13600;50.816;4.416;2022-12-11T16:46:52;5.00;99.90
25753;DHT22;13600;50.816;4.416;2022-12-11T16:49:18;4.70;99.90
25753;DHT22;13600;50.816;4.416;2022-12-11T16:51:45;4.60;99.90
25753;DHT22;13600;50.816;4.416;2022-12-11T16:54:11;4.70;99.90
25753;DHT22;13600;50.816;4.416;2022-12-11T16:56:37;4.70;99.90
25753;DHT22;13600;50.816;4.416;2022-12-11T16:59:04;4.60;99.90
25753;DHT22;13600;50.816;4.416;2022-12-11T17:01:30;4.40;99.90
25753;DHT22;13600;50.816;4.416;2022-12-11T17:03:56;4.20;99.90
25753;DHT22;13600;50.816;4.416;2022-12-11T17:06:21;4.30;99.90
25753;DHT22;13600;50.816;4.416;2022-12-11T17:08:47;4.30;99.90
25753;DHT22;13600;50.816;4.416;2022-12-11T17:11:16;4.30;99.90
25753;DHT22;13600;50.816;4.416;2022-12-11T17:13:43;4.20;99.90
25753;DHT22;13600;50.816;4.416;2022-12-11T17:16:14;4.40;99.90